sensor_id;sensor_type;location;lat;lon;timestamp;P1;durP1;ratioP1;P2;durP2;ratioP2
53903;SDS011;39812;52.430;16.936;2022-12-24T00:01:08;36.88;;;16.25;;
53903;SDS011;39812;52.430;16.936;2022-12-24T00:03:35;34.50;;;17.65;;
53903;SDS011;39812;52.430;16.936;2022-12-24T00:06:05;33.53;;;16.55;;
53903;SDS011;39812;52.430;16.936;2022-12-24T00:08:31;38.08;;;17.63;;
53903;SDS011;39812;52.430;16.936;2022-12-24T00:10:57;37.53;;;17.40;;
53903;SDS011;39812;52.430;16.936;2022-12-24T00:13:23;39.47;;;18.73;;
53903;SDS011;39812;52.430;16.936;2022-12-24T00:15:50;35.50;;;16.92;;
53903;SDS011;39812;52.430;16.936;2022-12-24T00:18:16;32.53;;;16.50;;
53903;SDS011;39812;52.430;16.936;2022-12-24T00:20:45;37.03;;;17.42;;
53903;SDS011;39812;52.430;16.936;2022-12-24T00:23:14;31.17;;;15.85;;
53903;SDS011;39812;52.430;16.936;2022-12-24T00:25:41;31.92;;;15.65;;
53903;SDS011;39812;52.430;16.936;2022-12-24T00:28:06;34.88;;;15.55;;
53903;SDS011;39812;52.430;16.936;2022-12-24T00:30:32;32.72;;;16.08;;
53903;SDS011;39812;52.430;16.936;2022-12-24T00:32:58;34.22;;;16.38;;
53903;SDS011;39812;52.430;16.936;2022-12-24T00:35:23;36.15;;;15.25;;
53903;SDS011;39812;52.430;16.936;2022-12-24T00:37:49;35.97;;;16.70;;
53903;SDS011;39812;52.430;16.936;2022-12-24T00:40:15;36.90;;;16.50;;
53903;SDS011;39812;52.430;16.936;2022-12-24T00:42:41;36.58;;;16.88;;
53903;SDS011;39812;52.430;16.936;2022-12-24T00:45:07;35.60;;;16.42;;
53903;SDS011;39812;52.430;16.936;2022-12-24T00:47:34;38.55;;;16.15;;
53903;SDS011;39812;52.430;16.936;2022-12-24T00:50:00;32.90;;;13.80;;
53903;SDS011;39812;52.430;16.936;2022-12-24T00:52:26;35.20;;;17.23;;
53903;SDS011;39812;52.430;16.936;2022-12-24T00:54:51;34.22;;;15.55;;
53903;SDS011;39812;52.430;16.936;2022-12-24T00:57:17;31.70;;;16.17;;
53903;SDS011;39812;52.430;16.936;2022-12-24T00:59:43;32.10;;;15.45;;
53903;SDS011;39812;52.430;16.936;2022-12-24T01:02:08;28.83;;;14.45;;
53903;SDS011;39812;52.430;16.936;2022-12-24T01:04:34;33.17;;;15.00;;
53903;SDS011;39812;52.430;16.936;2022-12-24T01:07:18;33.75;;;14.40;;
53903;SDS011;39812;52.430;16.936;2022-12-24T01:09:44;30.02;;;14.00;;
53903;SDS011;39812;52.430;16.936;2022-12-24T01:12:10;32.75;;;14.10;;
53903;SDS011;39812;52.430;16.936;2022-12-24T01:14:36;32.55;;;14.93;;
53903;SDS011;39812;52.430;16.936;2022-12-24T01:17:02;30.98;;;14.75;;
53903;SDS011;39812;52.430;16.936;2022-12-24T01:19:28;31.58;;;13.68;;
53903;SDS011;39812;52.430;16.936;2022-12-24T01:21:54;33.15;;;13.80;;
53903;SDS011;39812;52.430;16.936;2022-12-24T01:24:20;29.23;;;13.63;;
53903;SDS011;39812;52.430;16.936;2022-12-24T01:26:46;32.00;;;14.27;;
53903;SDS011;39812;52.430;16.936;2022-12-24T01:29:11;30.70;;;14.35;;
53903;SDS011;39812;52.430;16.936;2022-12-24T01:31:37;31.90;;;14.32;;
53903;SDS011;39812;52.430;16.936;2022-12-24T01:34:03;30.98;;;14.07;;
53903;SDS011;39812;52.430;16.936;2022-12-24T01:36:29;32.63;;;13.25;;
53903;SDS011;39812;52.430;16.936;2022-12-24T01:38:54;27.23;;;12.80;;
53903;SDS011;39812;52.430;16.936;2022-12-24T01:41:21;26.73;;;12.40;;
53903;SDS011;39812;52.430;16.936;2022-12-24T01:44:15;25.83;;;11.48;;
53903;SDS011;39812;52.430;16.936;2022-12-24T01:46:41;25.38;;;12.07;;
53903;SDS011;39812;52.430;16.936;2022-12-24T01:49:07;22.17;;;11.18;;
53903;SDS011;39812;52.430;16.936;2022-12-24T01:51:36;22.25;;;11.77;;
53903;SDS011;39812;52.430;16.936;2022-12-24T01:54:17;22.90;;;10.35;;
53903;SDS011;39812;52.430;16.936;2022-12-24T01:57:25;20.60;;;10.02;;
53903;SDS011;39812;52.430;16.936;2022-12-24T01:59:55;22.38;;;9.82;;
53903;SDS011;39812;52.430;16.936;2022-12-24T02:02:25;19.05;;;9.05;;
53903;SDS011;39812;52.430;16.936;2022-12-24T02:05:03;22.90;;;10.25;;
53903;SDS011;39812;52.430;16.936;2022-12-24T02:07:35;21.20;;;10.30;;
53903;SDS011;39812;52.430;16.936;2022-12-24T02:10:02;23.98;;;9.93;;
53903;SDS011;39812;52.430;16.936;2022-12-24T02:12:30;22.25;;;9.25;;
53903;SDS011;39812;52.430;16.936;2022-12-24T02:14:58;25.98;;;10.38;;
53903;SDS011;39812;52.430;16.936;2022-12-24T02:17:26;25.85;;;10.75;;
53903;SDS011;39812;52.430;16.936;2022-12-24T02:30:58;26.88;;;11.55;;
53903;SDS011;39812;52.430;16.936;2022-12-24T02:34:03;24.08;;;10.18;;
53903;SDS011;39812;52.430;16.936;2022-12-24T02:36:45;21.38;;;10.48;;
53903;SDS011;39812;52.430;16.936;2022-12-24T02:39:23;25.80;;;10.90;;
53903;SDS011;39812;52.430;16.936;2022-12-24T02:41:55;25.02;;;12.93;;
53903;SDS011;39812;52.430;16.936;2022-12-24T02:47:06;21.95;;;9.88;;
53903;SDS011;39812;52.430;16.936;2022-12-24T02:49:34;25.17;;;11.25;;
53903;SDS011;39812;52.430;16.936;2022-12-24T02:52:00;26.08;;;10.75;;
53903;SDS011;39812;52.430;16.936;2022-12-24T02:54:26;23.08;;;10.57;;
53903;SDS011;39812;52.430;16.936;2022-12-24T03:05:02;26.10;;;10.95;;
53903;SDS011;39812;52.430;16.936;2022-12-24T03:07:54;26.05;;;10.70;;
53903;SDS011;39812;52.430;16.936;2022-12-24T03:10:59;26.55;;;10.32;;
53903;SDS011;39812;52.430;16.936;2022-12-24T03:13:26;29.90;;;11.77;;
53903;SDS011;39812;52.430;16.936;2022-12-24T03:15:52;27.75;;;11.15;;
53903;SDS011;39812;52.430;16.936;2022-12-24T03:18:20;29.45;;;11.20;;
53903;SDS011;39812;52.430;16.936;2022-12-24T03:21:34;27.75;;;12.13;;
53903;SDS011;39812;52.430;16.936;2022-12-24T03:23:37;27.95;;;10.00;;
53903;SDS011;39812;52.430;16.936;2022-12-24T03:26:05;31.58;;;12.50;;
53903;SDS011;39812;52.430;16.936;2022-12-24T03:28:33;31.05;;;11.43;;
53903;SDS011;39812;52.430;16.936;2022-12-24T03:31:02;26.42;;;11.45;;
53903;SDS011;39812;52.430;16.936;2022-12-24T03:33:29;32.10;;;11.82;;
53903;SDS011;39812;52.430;16.936;2022-12-24T03:35:55;24.90;;;11.85;;
53903;SDS011;39812;52.430;16.936;2022-12-24T03:38:21;26.35;;;10.95;;
53903;SDS011;39812;52.430;16.936;2022-12-24T03:40:46;26.50;;;11.20;;
53903;SDS011;39812;52.430;16.936;2022-12-24T03:43:12;30.95;;;11.07;;
53903;SDS011;39812;52.430;16.936;2022-12-24T03:45:38;35.78;;;12.57;;
53903;SDS011;39812;52.430;16.936;2022-12-24T03:48:04;30.60;;;11.90;;
53903;SDS011;39812;52.430;16.936;2022-12-24T03:50:29;31.70;;;12.20;;
53903;SDS011;39812;52.430;16.936;2022-12-24T03:52:56;38.85;;;13.88;;
53903;SDS011;39812;52.430;16.936;2022-12-24T03:55:21;31.20;;;12.55;;
53903;SDS011;39812;52.430;16.936;2022-12-24T03:57:47;32.55;;;12.50;;
53903;SDS011;39812;52.430;16.936;2022-12-24T04:00:13;34.20;;;12.93;;
53903;SDS011;39812;52.430;16.936;2022-12-24T04:02:40;33.60;;;12.93;;
53903;SDS011;39812;52.430;16.936;2022-12-24T04:05:06;28.38;;;11.30;;
53903;SDS011;39812;52.430;16.936;2022-12-24T04:07:33;34.55;;;12.65;;
53903;SDS011;39812;52.430;16.936;2022-12-24T04:09:58;27.75;;;13.20;;
53903;SDS011;39812;52.430;16.936;2022-12-24T04:12:25;36.63;;;12.63;;
53903;SDS011;39812;52.430;16.936;2022-12-24T04:14:50;30.17;;;12.35;;
53903;SDS011;39812;52.430;16.936;2022-12-24T04:17:16;30.88;;;12.32;;
53903;SDS011;39812;52.430;16.936;2022-12-24T04:19:42;29.58;;;11.27;;
53903;SDS011;39812;52.430;16.936;2022-12-24T04:22:07;38.15;;;14.73;;
53903;SDS011;39812;52.430;16.936;2022-12-24T04:24:33;35.38;;;13.07;;
53903;SDS011;39812;52.430;16.936;2022-12-24T04:26:59;37.13;;;13.95;;
53903;SDS011;39812;52.430;16.936;2022-12-24T04:29:24;34.00;;;12.65;;
53903;SDS011;39812;52.430;16.936;2022-12-24T04:31:50;35.63;;;14.23;;
53903;SDS011;39812;52.430;16.936;2022-12-24T04:34:15;37.35;;;13.90;;
53903;SDS011;39812;52.430;16.936;2022-12-24T04:36:42;38.00;;;12.77;;
53903;SDS011;39812;52.430;16.936;2022-12-24T04:39:08;36.78;;;14.15;;
53903;SDS011;39812;52.430;16.936;2022-12-24T04:41:33;34.55;;;13.75;;
53903;SDS011;39812;52.430;16.936;2022-12-24T04:43:59;35.33;;;13.35;;
53903;SDS011;39812;52.430;16.936;2022-12-24T04:46:26;41.10;;;14.65;;
53903;SDS011;39812;52.430;16.936;2022-12-24T04:48:54;35.83;;;13.88;;
53903;SDS011;39812;52.430;16.936;2022-12-24T04:51:21;34.63;;;14.05;;
53903;SDS011;39812;52.430;16.936;2022-12-24T04:53:47;38.83;;;14.00;;
53903;SDS011;39812;52.430;16.936;2022-12-24T04:56:20;40.90;;;14.32;;
53903;SDS011;39812;52.430;16.936;2022-12-24T04:58:50;34.95;;;13.13;;
53903;SDS011;39812;52.430;16.936;2022-12-24T05:01:26;37.13;;;13.63;;
53903;SDS011;39812;52.430;16.936;2022-12-24T05:03:54;35.65;;;13.93;;
53903;SDS011;39812;52.430;16.936;2022-12-24T05:06:21;38.75;;;14.52;;
53903;SDS011;39812;52.430;16.936;2022-12-24T05:08:48;38.70;;;15.02;;
53903;SDS011;39812;52.430;16.936;2022-12-24T05:11:14;32.58;;;12.48;;
53903;SDS011;39812;52.430;16.936;2022-12-24T05:13:43;40.78;;;14.40;;
53903;SDS011;39812;52.430;16.936;2022-12-24T05:16:09;37.40;;;13.77;;
53903;SDS011;39812;52.430;16.936;2022-12-24T05:18:36;38.90;;;14.57;;
53903;SDS011;39812;52.430;16.936;2022-12-24T05:21:02;32.47;;;13.00;;
53903;SDS011;39812;52.430;16.936;2022-12-24T05:23:39;31.58;;;13.02;;
53903;SDS011;39812;52.430;16.936;2022-12-24T05:26:30;37.85;;;14.80;;
53903;SDS011;39812;52.430;16.936;2022-12-24T05:31:36;32.20;;;12.75;;
53903;SDS011;39812;52.430;16.936;2022-12-24T05:34:04;27.60;;;12.00;;
53903;SDS011;39812;52.430;16.936;2022-12-24T05:36:30;34.05;;;12.82;;
53903;SDS011;39812;52.430;16.936;2022-12-24T05:38:56;29.67;;;11.95;;
53903;SDS011;39812;52.430;16.936;2022-12-24T05:41:22;30.67;;;11.85;;
53903;SDS011;39812;52.430;16.936;2022-12-24T05:43:48;33.25;;;12.20;;
53903;SDS011;39812;52.430;16.936;2022-12-24T05:46:15;33.08;;;12.60;;
53903;SDS011;39812;52.430;16.936;2022-12-24T05:48:43;28.73;;;11.90;;
53903;SDS011;39812;52.430;16.936;2022-12-24T05:51:10;38.15;;;14.38;;
53903;SDS011;39812;52.430;16.936;2022-12-24T05:53:37;34.45;;;13.35;;
53903;SDS011;39812;52.430;16.936;2022-12-24T05:56:04;35.65;;;13.73;;
53903;SDS011;39812;52.430;16.936;2022-12-24T05:58:41;38.03;;;13.65;;
53903;SDS011;39812;52.430;16.936;2022-12-24T06:01:08;35.78;;;12.95;;
53903;SDS011;39812;52.430;16.936;2022-12-24T06:03:34;33.90;;;13.23;;
53903;SDS011;39812;52.430;16.936;2022-12-24T06:06:01;28.58;;;12.02;;
53903;SDS011;39812;52.430;16.936;2022-12-24T06:08:29;28.75;;;11.73;;
53903;SDS011;39812;52.430;16.936;2022-12-24T06:10:56;27.50;;;11.68;;
53903;SDS011;39812;52.430;16.936;2022-12-24T06:13:23;25.73;;;10.50;;
53903;SDS011;39812;52.430;16.936;2022-12-24T06:15:50;29.70;;;10.88;;
53903;SDS011;39812;52.430;16.936;2022-12-24T06:18:20;24.35;;;9.85;;
53903;SDS011;39812;52.430;16.936;2022-12-24T06:20:48;20.70;;;9.63;;
53903;SDS011;39812;52.430;16.936;2022-12-24T06:23:16;19.90;;;9.10;;
53903;SDS011;39812;52.430;16.936;2022-12-24T06:25:41;19.85;;;9.23;;
53903;SDS011;39812;52.430;16.936;2022-12-24T06:28:07;17.70;;;8.65;;
53903;SDS011;39812;52.430;16.936;2022-12-24T06:30:32;21.27;;;9.07;;
53903;SDS011;39812;52.430;16.936;2022-12-24T06:32:58;22.58;;;9.40;;
53903;SDS011;39812;52.430;16.936;2022-12-24T06:35:24;19.92;;;7.97;;
53903;SDS011;39812;52.430;16.936;2022-12-24T06:37:49;19.55;;;9.85;;
53903;SDS011;39812;52.430;16.936;2022-12-24T06:40:15;19.15;;;8.65;;
53903;SDS011;39812;52.430;16.936;2022-12-24T06:42:41;19.42;;;8.18;;
53903;SDS011;39812;52.430;16.936;2022-12-24T06:45:07;20.70;;;8.85;;
53903;SDS011;39812;52.430;16.936;2022-12-24T06:47:33;21.40;;;9.38;;
53903;SDS011;39812;52.430;16.936;2022-12-24T06:49:58;21.92;;;9.10;;
53903;SDS011;39812;52.430;16.936;2022-12-24T06:52:24;18.75;;;8.73;;
53903;SDS011;39812;52.430;16.936;2022-12-24T06:54:49;19.10;;;8.65;;
53903;SDS011;39812;52.430;16.936;2022-12-24T06:57:15;20.73;;;8.93;;
53903;SDS011;39812;52.430;16.936;2022-12-24T06:59:41;19.65;;;9.10;;
53903;SDS011;39812;52.430;16.936;2022-12-24T07:02:07;21.08;;;9.25;;
53903;SDS011;39812;52.430;16.936;2022-12-24T07:04:33;22.58;;;9.60;;
53903;SDS011;39812;52.430;16.936;2022-12-24T07:06:59;20.60;;;8.95;;
53903;SDS011;39812;52.430;16.936;2022-12-24T07:09:25;21.27;;;9.23;;
53903;SDS011;39812;52.430;16.936;2022-12-24T07:11:50;21.67;;;9.98;;
53903;SDS011;39812;52.430;16.936;2022-12-24T07:14:16;23.90;;;9.82;;
53903;SDS011;39812;52.430;16.936;2022-12-24T07:16:42;22.92;;;10.07;;
53903;SDS011;39812;52.430;16.936;2022-12-24T07:19:07;24.00;;;10.40;;
53903;SDS011;39812;52.430;16.936;2022-12-24T07:21:33;25.17;;;11.05;;
53903;SDS011;39812;52.430;16.936;2022-12-24T07:23:58;24.42;;;10.70;;
53903;SDS011;39812;52.430;16.936;2022-12-24T07:26:24;22.52;;;10.05;;
53903;SDS011;39812;52.430;16.936;2022-12-24T07:28:50;25.65;;;11.13;;
53903;SDS011;39812;52.430;16.936;2022-12-24T07:31:15;26.52;;;11.48;;
53903;SDS011;39812;52.430;16.936;2022-12-24T07:33:41;23.70;;;11.57;;
53903;SDS011;39812;52.430;16.936;2022-12-24T07:36:07;23.38;;;9.70;;
53903;SDS011;39812;52.430;16.936;2022-12-24T07:38:38;26.63;;;10.55;;
53903;SDS011;39812;52.430;16.936;2022-12-24T07:41:03;20.65;;;10.45;;
53903;SDS011;39812;52.430;16.936;2022-12-24T07:43:31;28.00;;;10.88;;
53903;SDS011;39812;52.430;16.936;2022-12-24T07:45:57;29.23;;;11.40;;
53903;SDS011;39812;52.430;16.936;2022-12-24T07:48:24;24.70;;;10.90;;
53903;SDS011;39812;52.430;16.936;2022-12-24T07:50:51;23.67;;;10.02;;
53903;SDS011;39812;52.430;16.936;2022-12-24T07:53:17;24.92;;;12.25;;
53903;SDS011;39812;52.430;16.936;2022-12-24T07:55:43;33.53;;;12.13;;
53903;SDS011;39812;52.430;16.936;2022-12-24T07:58:09;28.77;;;12.02;;
53903;SDS011;39812;52.430;16.936;2022-12-24T08:00:35;28.80;;;12.10;;
53903;SDS011;39812;52.430;16.936;2022-12-24T08:03:01;34.10;;;12.45;;
53903;SDS011;39812;52.430;16.936;2022-12-24T08:05:26;30.73;;;12.50;;
53903;SDS011;39812;52.430;16.936;2022-12-24T08:07:52;31.20;;;13.95;;
53903;SDS011;39812;52.430;16.936;2022-12-24T08:10:18;32.97;;;14.30;;
53903;SDS011;39812;52.430;16.936;2022-12-24T08:12:44;34.08;;;13.15;;
53903;SDS011;39812;52.430;16.936;2022-12-24T08:15:10;29.23;;;12.50;;
53903;SDS011;39812;52.430;16.936;2022-12-24T08:17:35;30.15;;;13.63;;
53903;SDS011;39812;52.430;16.936;2022-12-24T08:20:02;30.95;;;13.70;;
53903;SDS011;39812;52.430;16.936;2022-12-24T08:22:29;26.05;;;13.05;;
53903;SDS011;39812;52.430;16.936;2022-12-24T08:24:54;26.65;;;12.35;;
53903;SDS011;39812;52.430;16.936;2022-12-24T08:27:20;23.52;;;11.25;;
53903;SDS011;39812;52.430;16.936;2022-12-24T08:29:46;27.05;;;12.32;;
53903;SDS011;39812;52.430;16.936;2022-12-24T08:32:12;27.88;;;12.48;;
53903;SDS011;39812;52.430;16.936;2022-12-24T08:34:37;25.17;;;10.75;;
53903;SDS011;39812;52.430;16.936;2022-12-24T08:37:03;25.67;;;11.80;;
53903;SDS011;39812;52.430;16.936;2022-12-24T08:39:29;26.42;;;11.10;;
53903;SDS011;39812;52.430;16.936;2022-12-24T08:41:54;23.83;;;9.85;;
53903;SDS011;39812;52.430;16.936;2022-12-24T08:44:20;24.55;;;10.95;;
53903;SDS011;39812;52.430;16.936;2022-12-24T08:46:46;24.80;;;11.27;;
53903;SDS011;39812;52.430;16.936;2022-12-24T08:49:11;25.77;;;10.32;;
53903;SDS011;39812;52.430;16.936;2022-12-24T08:51:37;22.35;;;10.35;;
53903;SDS011;39812;52.430;16.936;2022-12-24T08:54:03;27.08;;;10.82;;
53903;SDS011;39812;52.430;16.936;2022-12-24T08:56:29;23.40;;;10.20;;
53903;SDS011;39812;52.430;16.936;2022-12-24T08:58:54;24.15;;;11.40;;
53903;SDS011;39812;52.430;16.936;2022-12-24T09:01:20;21.63;;;10.90;;
53903;SDS011;39812;52.430;16.936;2022-12-24T09:03:46;22.98;;;10.93;;
53903;SDS011;39812;52.430;16.936;2022-12-24T09:06:12;22.75;;;10.80;;
53903;SDS011;39812;52.430;16.936;2022-12-24T09:08:39;24.23;;;11.02;;
53903;SDS011;39812;52.430;16.936;2022-12-24T09:11:08;27.38;;;12.50;;
53903;SDS011;39812;52.430;16.936;2022-12-24T09:13:36;28.27;;;10.80;;
53903;SDS011;39812;52.430;16.936;2022-12-24T09:16:02;25.92;;;12.30;;
53903;SDS011;39812;52.430;16.936;2022-12-24T09:18:29;27.90;;;11.48;;
53903;SDS011;39812;52.430;16.936;2022-12-24T09:21:01;23.13;;;10.85;;
53903;SDS011;39812;52.430;16.936;2022-12-24T09:23:36;23.35;;;10.52;;
53903;SDS011;39812;52.430;16.936;2022-12-24T09:26:09;27.25;;;11.52;;
53903;SDS011;39812;52.430;16.936;2022-12-24T09:28:40;26.60;;;11.80;;
53903;SDS011;39812;52.430;16.936;2022-12-24T09:31:06;24.88;;;11.02;;
53903;SDS011;39812;52.430;16.936;2022-12-24T09:33:34;24.05;;;10.40;;
53903;SDS011;39812;52.430;16.936;2022-12-24T09:36:01;27.65;;;10.82;;
53903;SDS011;39812;52.430;16.936;2022-12-24T09:38:28;23.55;;;10.65;;
53903;SDS011;39812;52.430;16.936;2022-12-24T09:40:55;23.70;;;10.30;;
53903;SDS011;39812;52.430;16.936;2022-12-24T09:43:22;22.23;;;10.73;;
53903;SDS011;39812;52.430;16.936;2022-12-24T09:48:20;29.80;;;10.88;;
53903;SDS011;39812;52.430;16.936;2022-12-24T09:53:56;22.38;;;10.65;;
53903;SDS011;39812;52.430;16.936;2022-12-24T09:56:32;23.17;;;9.70;;
53903;SDS011;39812;52.430;16.936;2022-12-24T09:59:03;23.90;;;9.90;;
53903;SDS011;39812;52.430;16.936;2022-12-24T10:01:34;28.85;;;11.95;;
53903;SDS011;39812;52.430;16.936;2022-12-24T10:04:04;22.25;;;10.60;;
53903;SDS011;39812;52.430;16.936;2022-12-24T10:06:37;24.05;;;11.15;;
53903;SDS011;39812;52.430;16.936;2022-12-24T10:09:43;26.55;;;10.50;;
53903;SDS011;39812;52.430;16.936;2022-12-24T10:12:16;22.83;;;9.77;;
53903;SDS011;39812;52.430;16.936;2022-12-24T10:23:51;24.70;;;11.77;;
53903;SDS011;39812;52.430;16.936;2022-12-24T10:26:38;24.60;;;11.00;;
53903;SDS011;39812;52.430;16.936;2022-12-24T10:29:30;25.43;;;11.83;;
53903;SDS011;39812;52.430;16.936;2022-12-24T10:34:42;23.50;;;11.98;;
53903;SDS011;39812;52.430;16.936;2022-12-24T10:37:24;24.17;;;12.05;;
53903;SDS011;39812;52.430;16.936;2022-12-24T10:39:52;25.52;;;11.02;;
53903;SDS011;39812;52.430;16.936;2022-12-24T10:42:19;28.50;;;11.82;;
53903;SDS011;39812;52.430;16.936;2022-12-24T10:44:51;27.02;;;11.70;;
53903;SDS011;39812;52.430;16.936;2022-12-24T10:47:21;28.15;;;12.98;;
53903;SDS011;39812;52.430;16.936;2022-12-24T10:52:19;26.92;;;11.82;;
53903;SDS011;39812;52.430;16.936;2022-12-24T10:55:30;25.15;;;11.95;;
53903;SDS011;39812;52.430;16.936;2022-12-24T10:57:40;24.83;;;11.60;;
53903;SDS011;39812;52.430;16.936;2022-12-24T11:00:17;30.83;;;12.95;;
53903;SDS011;39812;52.430;16.936;2022-12-24T11:02:45;25.17;;;11.52;;
53903;SDS011;39812;52.430;16.936;2022-12-24T11:05:31;26.33;;;12.05;;
53903;SDS011;39812;52.430;16.936;2022-12-24T11:08:02;24.08;;;11.63;;
53903;SDS011;39812;52.430;16.936;2022-12-24T11:10:29;27.50;;;11.32;;
53903;SDS011;39812;52.430;16.936;2022-12-24T11:12:57;26.08;;;12.18;;
53903;SDS011;39812;52.430;16.936;2022-12-24T11:15:27;26.88;;;12.23;;
53903;SDS011;39812;52.430;16.936;2022-12-24T11:18:03;23.92;;;12.10;;
53903;SDS011;39812;52.430;16.936;2022-12-24T11:20:37;26.35;;;11.02;;
53903;SDS011;39812;52.430;16.936;2022-12-24T11:23:03;27.48;;;13.20;;
53903;SDS011;39812;52.430;16.936;2022-12-24T11:25:30;25.20;;;11.82;;
53903;SDS011;39812;52.430;16.936;2022-12-24T11:28:09;27.20;;;13.15;;
53903;SDS011;39812;52.430;16.936;2022-12-24T11:30:41;26.65;;;12.20;;
53903;SDS011;39812;52.430;16.936;2022-12-24T11:35:32;22.55;;;11.80;;
53903;SDS011;39812;52.430;16.936;2022-12-24T11:40:32;30.15;;;13.77;;
53903;SDS011;39812;52.430;16.936;2022-12-24T11:43:04;30.25;;;13.82;;
53903;SDS011;39812;52.430;16.936;2022-12-24T11:45:31;30.05;;;12.15;;
53903;SDS011;39812;52.430;16.936;2022-12-24T11:47:58;24.58;;;12.20;;
53903;SDS011;39812;52.430;16.936;2022-12-24T11:50:29;27.75;;;12.52;;
53903;SDS011;39812;52.430;16.936;2022-12-24T12:00:49;28.85;;;13.35;;
53903;SDS011;39812;52.430;16.936;2022-12-24T12:03:27;27.70;;;13.68;;
53903;SDS011;39812;52.430;16.936;2022-12-24T12:05:57;29.65;;;14.10;;
53903;SDS011;39812;52.430;16.936;2022-12-24T12:08:25;26.40;;;12.43;;
53903;SDS011;39812;52.430;16.936;2022-12-24T12:10:53;26.42;;;12.98;;
53903;SDS011;39812;52.430;16.936;2022-12-24T12:13:23;29.40;;;14.25;;
53903;SDS011;39812;52.430;16.936;2022-12-24T12:21:20;27.45;;;13.25;;
53903;SDS011;39812;52.430;16.936;2022-12-24T12:23:55;24.50;;;12.57;;
53903;SDS011;39812;52.430;16.936;2022-12-24T12:26:27;27.38;;;12.63;;
53903;SDS011;39812;52.430;16.936;2022-12-24T12:29:02;30.90;;;15.75;;
53903;SDS011;39812;52.430;16.936;2022-12-24T12:31:51;28.75;;;13.70;;
53903;SDS011;39812;52.430;16.936;2022-12-24T12:34:25;31.10;;;13.27;;
53903;SDS011;39812;52.430;16.936;2022-12-24T12:36:58;29.35;;;13.18;;
53903;SDS011;39812;52.430;16.936;2022-12-24T12:39:30;30.92;;;13.98;;
53903;SDS011;39812;52.430;16.936;2022-12-24T12:44:58;29.38;;;14.80;;
53903;SDS011;39812;52.430;16.936;2022-12-24T12:50:51;32.17;;;14.18;;
53903;SDS011;39812;52.430;16.936;2022-12-24T12:55:58;28.30;;;14.15;;
53903;SDS011;39812;52.430;16.936;2022-12-24T13:04:20;29.92;;;13.70;;
53903;SDS011;39812;52.430;16.936;2022-12-24T13:07:27;26.05;;;12.65;;
53903;SDS011;39812;52.430;16.936;2022-12-24T13:21:22;30.02;;;13.57;;
53903;SDS011;39812;52.430;16.936;2022-12-24T13:23:50;29.35;;;14.02;;
53903;SDS011;39812;52.430;16.936;2022-12-24T13:26:39;31.42;;;14.25;;
53903;SDS011;39812;52.430;16.936;2022-12-24T13:31:58;29.33;;;13.68;;
53903;SDS011;39812;52.430;16.936;2022-12-24T13:34:54;28.17;;;13.35;;
53903;SDS011;39812;52.430;16.936;2022-12-24T13:53:03;28.63;;;14.23;;
53903;SDS011;39812;52.430;16.936;2022-12-24T13:55:30;32.35;;;14.07;;
53903;SDS011;39812;52.430;16.936;2022-12-24T13:58:00;28.98;;;14.82;;
53903;SDS011;39812;52.430;16.936;2022-12-24T14:08:03;29.67;;;14.63;;
53903;SDS011;39812;52.430;16.936;2022-12-24T14:10:36;31.33;;;15.30;;
53903;SDS011;39812;52.430;16.936;2022-12-24T14:13:04;33.72;;;16.05;;
53903;SDS011;39812;52.430;16.936;2022-12-24T14:15:44;37.85;;;15.02;;
53903;SDS011;39812;52.430;16.936;2022-12-24T14:18:16;29.48;;;14.77;;
53903;SDS011;39812;52.430;16.936;2022-12-24T14:20:47;33.45;;;15.23;;
53903;SDS011;39812;52.430;16.936;2022-12-24T14:26:12;31.23;;;15.38;;
53903;SDS011;39812;52.430;16.936;2022-12-24T14:28:42;27.92;;;14.32;;
53903;SDS011;39812;52.430;16.936;2022-12-24T14:31:16;28.65;;;14.07;;
53903;SDS011;39812;52.430;16.936;2022-12-24T14:33:43;27.98;;;14.48;;
53903;SDS011;39812;52.430;16.936;2022-12-24T14:36:09;33.33;;;15.98;;
53903;SDS011;39812;52.430;16.936;2022-12-24T14:38:39;30.80;;;15.45;;
53903;SDS011;39812;52.430;16.936;2022-12-24T14:41:21;32.58;;;15.40;;
53903;SDS011;39812;52.430;16.936;2022-12-24T14:46:25;34.22;;;15.68;;
53903;SDS011;39812;52.430;16.936;2022-12-24T14:54:41;35.65;;;16.60;;
53903;SDS011;39812;52.430;16.936;2022-12-24T14:57:11;33.65;;;15.85;;
53903;SDS011;39812;52.430;16.936;2022-12-24T14:59:52;32.83;;;15.68;;
53903;SDS011;39812;52.430;16.936;2022-12-24T15:05:18;39.42;;;16.58;;
53903;SDS011;39812;52.430;16.936;2022-12-24T15:07:55;32.38;;;15.35;;
53903;SDS011;39812;52.430;16.936;2022-12-24T15:12:51;35.67;;;16.00;;
53903;SDS011;39812;52.430;16.936;2022-12-24T15:15:18;37.33;;;16.30;;
53903;SDS011;39812;52.430;16.936;2022-12-24T15:17:45;33.42;;;16.92;;
53903;SDS011;39812;52.430;16.936;2022-12-24T15:20:15;32.30;;;14.40;;
53903;SDS011;39812;52.430;16.936;2022-12-24T15:22:44;33.10;;;15.48;;
53903;SDS011;39812;52.430;16.936;2022-12-24T15:25:18;30.90;;;15.23;;
53903;SDS011;39812;52.430;16.936;2022-12-24T15:27:49;31.98;;;14.25;;
53903;SDS011;39812;52.430;16.936;2022-12-24T15:30:22;31.45;;;15.82;;
53903;SDS011;39812;52.430;16.936;2022-12-24T15:32:52;37.53;;;16.98;;
53903;SDS011;39812;52.430;16.936;2022-12-24T15:35:28;31.70;;;15.55;;
53903;SDS011;39812;52.430;16.936;2022-12-24T15:37:56;36.28;;;15.98;;
53903;SDS011;39812;52.430;16.936;2022-12-24T15:40:23;37.05;;;14.95;;
53903;SDS011;39812;52.430;16.936;2022-12-24T15:42:49;31.23;;;16.00;;
53903;SDS011;39812;52.430;16.936;2022-12-24T15:45:16;37.85;;;16.63;;
53903;SDS011;39812;52.430;16.936;2022-12-24T15:47:54;37.47;;;16.98;;
53903;SDS011;39812;52.430;16.936;2022-12-24T15:52:55;32.38;;;15.63;;
53903;SDS011;39812;52.430;16.936;2022-12-24T15:55:38;29.73;;;14.38;;
53903;SDS011;39812;52.430;16.936;2022-12-24T15:58:24;32.40;;;15.20;;
53903;SDS011;39812;52.430;16.936;2022-12-24T16:03:33;31.58;;;15.75;;
53903;SDS011;39812;52.430;16.936;2022-12-24T16:06:04;34.95;;;16.27;;
53903;SDS011;39812;52.430;16.936;2022-12-24T16:08:33;33.40;;;15.90;;
53903;SDS011;39812;52.430;16.936;2022-12-24T16:11:16;32.65;;;15.98;;
53903;SDS011;39812;52.430;16.936;2022-12-24T16:13:59;35.88;;;14.80;;
53903;SDS011;39812;52.430;16.936;2022-12-24T16:16:41;29.27;;;14.95;;
53903;SDS011;39812;52.430;16.936;2022-12-24T16:19:22;35.25;;;16.30;;
53903;SDS011;39812;52.430;16.936;2022-12-24T16:21:57;31.45;;;16.10;;
53903;SDS011;39812;52.430;16.936;2022-12-24T16:24:45;31.10;;;16.27;;
53903;SDS011;39812;52.430;16.936;2022-12-24T16:27:11;38.15;;;16.88;;
53903;SDS011;39812;52.430;16.936;2022-12-24T16:29:37;34.40;;;15.68;;
53903;SDS011;39812;52.430;16.936;2022-12-24T16:32:03;34.67;;;16.38;;
53903;SDS011;39812;52.430;16.936;2022-12-24T16:34:29;33.08;;;16.30;;
53903;SDS011;39812;52.430;16.936;2022-12-24T16:36:56;32.85;;;16.25;;
53903;SDS011;39812;52.430;16.936;2022-12-24T16:39:30;38.10;;;17.50;;
53903;SDS011;39812;52.430;16.936;2022-12-24T16:41:58;33.17;;;15.27;;